Asan, Guam
Current Conditions -  °F | °C
As of 6:54 PM on Wednesday 22 Oct 2014 (Local Time) from PGUM Reporting Station
Clear Clear  
Wind Chill: 83°   Ceiling: Unl
Heat Index: 90°   Visibility: 10mi
Dew Point: 75°   Wind: 3mph
Humidity: 77%   Direction: 50°NE
Pressure: 29.81"   Gusts: NA
Location:  13.47°N, 144.71°E
Report Text: PGUM 220854Z 05003KT 10SM CLR 28/24 A2981 RMK AO2 SLP087 T02830239 51012
Loading
Personal Weather Stations






























Interactive Weather Map
Tropical Storm Tracking
New forecast layout! Learn more

10-Day Weather Forecast

Advertisements
Track Severe Weather on mobile